Time,TemperatureF,DewpointF,PressureIn,WindDirection,WindDirectionDegrees,WindSpeedMPH,WindSpeedGustMPH,Humidity,HourlyPrecipIn,Conditions,Clouds,dailyrainin,SoftwareType,DateUTC
2013-06-15 00:01:00,57.9,54.4,30.14,SW,225,0.0,0.0,88,0.00,,,0.00,pywws,2013-06-15 04:01:00,
2013-06-15 00:02:00,57.9,54.4,30.14,SW,225,0.0,0.0,88,0.00,,,0.00,pywws,2013-06-15 04:02:00,
2013-06-15 00:07:00,57.6,54.3,30.14,SW,225,0.0,0.0,89,0.00,,,0.00,pywws,2013-06-15 04:07:00,
2013-06-15 00:08:00,57.6,54.6,30.14,SW,225,0.0,0.0,90,0.00,,,0.00,pywws,2013-06-15 04:08:00,
2013-06-15 00:09:00,57.4,54.5,30.14,SW,225,0.0,0.0,90,0.00,,,0.00,pywws,2013-06-15 04:09:00,
2013-06-15 00:15:00,57.2,54.3,30.14,SW,225,0.0,0.0,90,0.00,,,0.00,pywws,2013-06-15 04:15:00,
2013-06-15 00:20:00,56.8,54.5,30.14,SW,225,0.0,0.0,92,0.00,,,0.00,pywws,2013-06-15 04:20:00,
2013-06-15 00:26:00,57.0,54.7,30.14,NE,45,0.0,0.0,92,0.00,,,0.00,pywws,2013-06-15 04:26:00,
2013-06-15 00:31:00,56.7,54.4,30.14,NE,45,0.0,0.0,92,0.00,,,0.00,pywws,2013-06-15 04:31:00,
2013-06-15 00:36:00,56.5,54.2,30.14,West,270,0.0,0.0,92,0.00,,,0.00,pywws,2013-06-15 04:36:00,
2013-06-15 00:47:00,56.3,54.0,30.14,West,270,0.0,0.0,92,0.00,,,0.00,pywws,2013-06-15 04:47:00,
2013-06-15 00:53:00,55.9,53.9,30.14,West,270,0.0,0.0,93,0.00,,,0.00,pywws,2013-06-15 04:53:00,
2013-06-15 00:59:00,55.8,53.5,30.15,West,270,0.0,0.0,92,0.00,,,0.00,pywws,2013-06-15 04:59:00,
2013-06-15 01:05:00,55.8,53.8,30.15,North,0,0.0,0.0,93,0.00,,,0.00,pywws,2013-06-15 05:05:00,
2013-06-15 01:12:00,55.6,53.9,30.14,North,0,0.0,0.0,94,0.00,,,0.00,pywws,2013-06-15 05:12:00,
2013-06-15 01:19:00,55.2,53.5,30.15,North,0,0.0,0.0,94,0.00,,,0.00,pywws,2013-06-15 05:19:00,
2013-06-15 01:24:00,55.6,53.9,30.15,West,270,0.0,0.0,94,0.00,,,0.00,pywws,2013-06-15 05:24:00,
2013-06-15 01:32:00,55.4,53.7,30.15,West,270,0.0,0.0,94,0.00,,,0.00,pywws,2013-06-15 05:32:00,
2013-06-15 01:38:00,55.0,53.3,30.15,West,270,0.0,0.0,94,0.00,,,0.00,pywws,2013-06-15 05:38:00,
2013-06-15 01:44:00,54.9,53.2,30.14,West,270,0.0,0.0,94,0.00,,,0.00,pywws,2013-06-15 05:44:00,
2013-06-15 01:50:00,54.9,53.5,30.15,West,270,0.0,0.0,95,0.00,,,0.00,pywws,2013-06-15 05:50:00,
2013-06-15 01:57:00,54.7,53.3,30.14,West,270,0.0,0.0,95,0.00,,,0.00,pywws,2013-06-15 05:57:00,
2013-06-15 02:03:00,54.7,53.3,30.15,West,270,0.0,0.0,95,0.00,,,0.00,pywws,2013-06-15 06:03:00,
2013-06-15 02:08:00,54.5,53.1,30.15,West,270,0.0,0.0,95,0.00,,,0.00,pywws,2013-06-15 06:08:00,
2013-06-15 02:14:00,54.5,53.1,30.15,West,270,0.0,0.0,95,0.00,,,0.00,pywws,2013-06-15 06:14:00,
2013-06-15 02:21:00,54.3,52.9,30.15,West,270,0.0,0.0,95,0.00,,,0.00,pywws,2013-06-15 06:21:00,
2013-06-15 02:27:00,54.1,52.7,30.15,West,270,0.0,0.0,95,0.00,,,0.00,pywws,2013-06-15 06:27:00,
2013-06-15 02:32:00,54.0,52.8,30.15,NE,45,0.0,0.0,96,0.00,,,0.00,pywws,2013-06-15 06:32:00,
2013-06-15 02:38:00,54.0,52.8,30.14,South,180,0.0,0.0,96,0.00,,,0.00,pywws,2013-06-15 06:38:00,
2013-06-15 02:44:00,54.0,52.8,30.15,West,270,0.0,0.0,96,0.00,,,0.00,pywws,2013-06-15 06:44:00,
2013-06-15 02:50:00,54.0,52.8,30.15,West,270,0.0,0.0,96,0.00,,,0.00,pywws,2013-06-15 06:50:00,
2013-06-15 02:57:00,53.8,52.7,30.15,West,270,0.0,0.0,96,0.00,,,0.00,pywws,2013-06-15 06:57:00,
2013-06-15 03:03:00,53.6,52.5,30.14,East,90,0.0,0.0,96,0.00,,,0.00,pywws,2013-06-15 07:03:00,
2013-06-15 03:08:00,53.6,52.8,30.14,West,270,0.0,0.7,97,0.00,,,0.00,pywws,2013-06-15 07:08:00,
2013-06-15 03:14:00,53.6,52.8,30.14,West,270,0.0,0.0,97,0.00,,,0.00,pywws,2013-06-15 07:14:00,
2013-06-15 03:19:00,53.6,52.8,30.14,West,270,0.0,0.0,97,0.00,,,0.00,pywws,2013-06-15 07:19:00,
2013-06-15 03:26:00,53.6,52.8,30.13,West,270,0.0,0.0,97,0.00,,,0.00,pywws,2013-06-15 07:26:00,
2013-06-15 03:32:00,53.2,52.7,30.13,NE,45,0.0,0.0,98,0.00,,,0.00,pywws,2013-06-15 07:32:00,
2013-06-15 03:38:00,53.1,52.5,30.13,NE,45,0.0,0.0,98,0.00,,,0.00,pywws,2013-06-15 07:38:00,
2013-06-15 03:44:00,52.9,52.3,30.13,SW,225,0.0,0.0,98,0.00,,,0.00,pywws,2013-06-15 07:44:00,
2013-06-15 03:50:00,52.9,52.3,30.14,SW,225,0.0,0.0,98,0.00,,,0.00,pywws,2013-06-15 07:50:00,
2013-06-15 03:55:00,52.7,52.2,30.14,SW,225,0.0,0.0,98,0.00,,,0.00,pywws,2013-06-15 07:55:00,
2013-06-15 04:01:00,52.5,52.0,30.14,SW,225,0.0,0.0,98,0.00,,,0.00,pywws,2013-06-15 08:01:00,
2013-06-15 04:07:00,52.5,52.0,30.14,SW,225,0.0,0.0,98,0.00,,,0.00,pywws,2013-06-15 08:07:00,
2013-06-15 04:14:00,52.3,51.8,30.14,NW,315,0.0,0.0,98,0.00,,,0.00,pywws,2013-06-15 08:14:00,
2013-06-15 04:19:00,52.5,52.0,30.14,NW,315,0.0,0.0,98,0.00,,,0.00,pywws,2013-06-15 08:19:00,
2013-06-15 04:25:00,52.3,51.8,30.14,NW,315,0.0,0.0,98,0.00,,,0.00,pywws,2013-06-15 08:25:00,
2013-06-15 04:32:00,52.3,51.8,30.14,NW,315,0.0,0.0,98,0.00,,,0.00,pywws,2013-06-15 08:32:00,
2013-06-15 04:40:00,52.3,51.8,30.15,NW,315,0.0,0.0,98,0.00,,,0.00,pywws,2013-06-15 08:40:00,
2013-06-15 04:47:00,52.3,51.8,30.16,NW,315,0.0,0.0,98,0.00,,,0.00,pywws,2013-06-15 08:47:00,
2013-06-15 04:53:00,52.3,51.8,30.16,NW,315,0.0,0.0,98,0.00,,,0.00,pywws,2013-06-15 08:53:00,
2013-06-15 04:59:00,52.5,52.0,30.15,WSW,248,0.0,0.0,98,0.00,,,0.00,pywws,2013-06-15 08:59:00,
2013-06-15 05:04:00,52.3,51.8,30.16,West,270,0.0,0.0,98,0.00,,,0.00,pywws,2013-06-15 09:04:00,
2013-06-15 05:10:00,52.3,51.8,30.16,NW,315,0.0,0.7,98,0.00,,,0.00,pywws,2013-06-15 09:10:00,
2013-06-15 05:16:00,52.2,51.6,30.16,NW,315,0.0,0.0,98,0.00,,,0.00,pywws,2013-06-15 09:16:00,
2013-06-15 05:22:00,52.2,51.6,30.16,West,270,0.0,0.0,98,0.00,,,0.00,pywws,2013-06-15 09:22:00,
2013-06-15 05:27:00,52.2,51.6,30.16,North,0,0.0,0.0,98,0.00,,,0.00,pywws,2013-06-15 09:27:00,
2013-06-15 05:33:00,52.0,51.4,30.17,North,0,0.0,0.0,98,0.00,,,0.00,pywws,2013-06-15 09:33:00,
2013-06-15 05:39:00,51.8,51.3,30.17,North,0,0.0,0.0,98,0.00,,,0.00,pywws,2013-06-15 09:39:00,
2013-06-15 05:44:00,51.8,51.3,30.18,North,0,0.0,0.0,98,0.00,,,0.00,pywws,2013-06-15 09:44:00,
2013-06-15 05:50:00,51.6,51.3,30.17,North,0,0.0,0.0,99,0.00,,,0.00,pywws,2013-06-15 09:50:00,
2013-06-15 05:55:00,51.3,51.0,30.17,North,0,0.0,0.0,99,0.00,,,0.00,pywws,2013-06-15 09:55:00,
2013-06-15 06:03:00,51.3,51.0,30.18,North,0,0.0,0.0,99,0.00,,,0.00,pywws,2013-06-15 10:03:00,
2013-06-15 06:08:00,51.3,51.0,30.18,North,0,0.0,0.0,99,0.00,,,0.00,pywws,2013-06-15 10:08:00,
2013-06-15 06:14:00,51.1,50.8,30.18,North,0,0.0,0.0,99,0.00,,,0.00,pywws,2013-06-15 10:14:00,
2013-06-15 06:19:00,50.9,50.6,30.18,North,0,0.0,0.0,99,0.00,,,0.00,pywws,2013-06-15 10:19:00,
2013-06-15 06:25:00,51.3,51.0,30.19,North,0,0.0,0.0,99,0.00,,,0.00,pywws,2013-06-15 10:25:00,
2013-06-15 06:31:00,51.4,51.2,30.19,North,0,0.0,0.0,99,0.00,,,0.00,pywws,2013-06-15 10:31:00,
2013-06-15 06:36:00,51.6,51.3,30.19,SW,225,0.0,0.7,99,0.00,,,0.00,pywws,2013-06-15 10:36:00,
2013-06-15 06:42:00,51.8,51.3,30.19,SW,225,0.0,0.0,98,0.00,,,0.00,pywws,2013-06-15 10:42:00,
2013-06-15 06:49:00,52.0,51.4,30.19,SW,225,0.0,0.0,98,0.00,,,0.00,pywws,2013-06-15 10:49:00,
2013-06-15 06:55:00,52.0,51.4,30.19,SW,225,0.0,0.0,98,0.00,,,0.00,pywws,2013-06-15 10:55:00,
2013-06-15 07:00:00,52.2,51.6,30.19,SW,225,0.0,0.0,98,0.00,,,0.00,pywws,2013-06-15 11:00:00,
2013-06-15 07:09:00,52.5,52.0,30.19,SW,225,0.0,0.0,98,0.00,,,0.00,pywws,2013-06-15 11:09:00,
2013-06-15 07:15:00,52.7,52.2,30.19,SW,225,0.0,0.0,98,0.00,,,0.00,pywws,2013-06-15 11:15:00,
2013-06-15 07:20:00,52.9,52.3,30.19,SW,225,0.0,0.0,98,0.00,,,0.00,pywws,2013-06-15 11:20:00,
2013-06-15 07:31:00,52.7,52.2,30.20,SW,225,0.0,0.0,98,0.00,,,0.00,pywws,2013-06-15 11:31:00,
2013-06-15 07:36:00,53.2,52.7,30.20,SW,225,0.0,0.0,98,0.00,,,0.00,pywws,2013-06-15 11:36:00,
2013-06-15 07:43:00,54.0,53.1,30.20,SW,225,0.0,0.0,97,0.00,,,0.00,pywws,2013-06-15 11:43:00,
2013-06-15 07:49:00,54.5,53.7,30.20,SW,225,0.0,0.0,97,0.00,,,0.00,pywws,2013-06-15 11:49:00,
2013-06-15 07:55:00,55.0,54.2,30.20,East,90,0.0,0.0,97,0.00,,,0.00,pywws,2013-06-15 11:55:00,
2013-06-15 08:01:00,55.8,55.5,30.20,East,90,0.0,0.0,99,0.00,,,0.00,pywws,2013-06-15 12:01:00,
2013-06-15 08:07:00,56.5,56.2,30.20,East,90,0.0,0.0,99,0.00,,,0.00,pywws,2013-06-15 12:07:00,
2013-06-15 08:13:00,57.0,56.7,30.21,SW,225,0.0,0.0,99,0.00,,,0.00,pywws,2013-06-15 12:13:00,
2013-06-15 08:19:00,57.2,56.9,30.20,North,0,0.0,0.0,99,0.00,,,0.00,pywws,2013-06-15 12:19:00,
2013-06-15 08:24:00,60.6,60.3,30.20,North,0,0.0,0.0,99,0.00,,,0.00,pywws,2013-06-15 12:24:00,
2013-06-15 08:30:00,62.1,61.2,30.21,NE,45,0.0,0.0,97,0.00,,,0.00,pywws,2013-06-15 12:30:00,
2013-06-15 08:35:00,63.5,61.7,30.21,North,0,0.0,0.7,94,0.00,,,0.00,pywws,2013-06-15 12:35:00,
2013-06-15 08:41:00,66.7,63.1,30.21,East,90,0.0,0.0,88,0.00,,,0.00,pywws,2013-06-15 12:41:00,
2013-06-15 08:47:00,68.5,62.1,30.21,SW,225,0.0,0.0,80,0.00,,,0.00,pywws,2013-06-15 12:47:00,
2013-06-15 08:52:00,70.7,61.2,30.21,NE,45,0.0,0.7,72,0.00,,,0.00,pywws,2013-06-15 12:52:00,
2013-06-15 08:58:00,71.6,60.5,30.21,NE,45,0.0,0.0,68,0.00,,,0.00,pywws,2013-06-15 12:58:00,
2013-06-15 09:03:00,71.4,59.0,30.21,South,180,0.0,1.6,65,0.00,,,0.00,pywws,2013-06-15 13:03:00,
2013-06-15 09:09:00,72.5,60.1,30.21,North,0,0.0,0.7,65,0.00,,,0.00,pywws,2013-06-15 13:09:00,
2013-06-15 09:15:00,72.9,59.1,30.21,NE,45,0.0,0.7,62,0.00,,,0.00,pywws,2013-06-15 13:15:00,
2013-06-15 09:21:00,72.7,58.4,30.22,SW,225,0.7,1.6,61,0.00,,,0.00,pywws,2013-06-15 13:21:00,
2013-06-15 09:27:00,72.1,58.8,30.22,NE,45,0.7,1.6,63,0.00,,,0.00,pywws,2013-06-15 13:27:00,
2013-06-15 09:32:00,73.8,59.9,30.22,NE,45,0.7,1.6,62,0.00,,,0.00,pywws,2013-06-15 13:32:00,
2013-06-15 09:38:00,76.1,60.7,30.22,NE,45,0.7,1.6,59,0.00,,,0.00,pywws,2013-06-15 13:38:00,
2013-06-15 09:43:00,76.8,59.4,30.22,NE,45,0.7,1.6,55,0.00,,,0.00,pywws,2013-06-15 13:43:00,
2013-06-15 09:49:00,77.2,59.2,30.22,NE,45,0.0,0.0,54,0.00,,,0.00,pywws,2013-06-15 13:49:00,
2013-06-15 09:55:00,77.9,58.8,30.21,South,180,1.6,2.2,52,0.00,,,0.00,pywws,2013-06-15 13:55:00,
2013-06-15 10:00:00,77.5,59.6,30.21,NE,45,0.0,0.7,54,0.00,,,0.00,pywws,2013-06-15 14:00:00,
2013-06-15 10:06:00,78.3,58.6,30.21,West,270,0.7,1.6,51,0.00,,,0.00,pywws,2013-06-15 14:06:00,
2013-06-15 10:11:00,78.8,59.7,30.21,East,90,1.6,2.2,52,0.00,,,0.00,pywws,2013-06-15 14:11:00,
2013-06-15 10:17:00,79.2,60.0,30.21,NE,45,0.0,0.7,52,0.00,,,0.00,pywws,2013-06-15 14:17:00,
2013-06-15 10:23:00,80.1,59.7,30.21,NE,45,0.0,0.7,50,0.00,,,0.00,pywws,2013-06-15 14:23:00,
2013-06-15 10:28:00,81.3,59.1,30.21,NE,45,0.7,1.6,47,0.00,,,0.00,pywws,2013-06-15 14:28:00,
2013-06-15 10:33:00,81.1,58.4,30.20,NE,45,0.7,2.2,46,0.00,,,0.00,pywws,2013-06-15 14:33:00,
2013-06-15 10:39:00,81.5,59.3,30.20,West,270,0.0,0.7,47,0.00,,,0.00,pywws,2013-06-15 14:39:00,
2013-06-15 10:44:00,83.3,60.9,30.20,North,0,0.0,1.6,47,0.00,,,0.00,pywws,2013-06-15 14:44:00,
2013-06-15 10:50:00,83.1,60.2,30.20,East,90,0.0,0.7,46,0.00,,,0.00,pywws,2013-06-15 14:50:00,
2013-06-15 10:55:00,82.9,60.0,30.20,NE,45,0.7,1.6,46,0.00,,,0.00,pywws,2013-06-15 14:55:00,
2013-06-15 11:01:00,82.9,60.0,30.20,NE,45,1.6,2.2,46,0.00,,,0.00,pywws,2013-06-15 15:01:00,
2013-06-15 11:07:00,81.9,58.4,30.19,NE,45,0.7,2.2,45,0.00,,,0.00,pywws,2013-06-15 15:07:00,
2013-06-15 11:12:00,82.2,57.5,30.20,NE,45,0.7,2.2,43,0.00,,,0.00,pywws,2013-06-15 15:12:00,
2013-06-15 11:18:00,82.2,57.5,30.20,North,0,0.7,1.6,43,0.00,,,0.00,pywws,2013-06-15 15:18:00,
2013-06-15 11:23:00,82.8,59.2,30.19,NE,45,1.6,1.6,45,0.00,,,0.00,pywws,2013-06-15 15:23:00,
2013-06-15 11:29:00,82.2,56.8,30.20,NE,45,0.7,2.2,42,0.00,,,0.00,pywws,2013-06-15 15:29:00,
2013-06-15 11:35:00,82.2,56.8,30.19,East,90,1.6,2.2,42,0.00,,,0.00,pywws,2013-06-15 15:35:00,
2013-06-15 11:40:00,82.9,59.4,30.19,West,270,2.2,3.1,45,0.00,,,0.00,pywws,2013-06-15 15:40:00,
2013-06-15 11:46:00,84.4,60.1,30.19,NE,45,1.6,2.2,44,0.00,,,0.00,pywws,2013-06-15 15:46:00,
2013-06-15 11:51:00,85.1,58.7,30.19,NE,45,1.6,2.2,41,0.00,,,0.00,pywws,2013-06-15 15:51:00,
2013-06-15 11:57:00,84.4,58.1,30.19,South,180,1.6,2.2,41,0.00,,,0.00,pywws,2013-06-15 15:57:00,
2013-06-15 12:03:00,85.8,59.4,30.19,East,90,1.6,2.2,41,0.00,,,0.00,pywws,2013-06-15 16:03:00,
2013-06-15 12:08:00,85.8,58.0,30.19,NE,45,1.6,2.2,39,0.00,,,0.00,pywws,2013-06-15 16:08:00,
2013-06-15 12:14:00,86.7,58.8,30.19,SW,225,0.7,2.2,39,0.00,,,0.00,pywws,2013-06-15 16:14:00,
2013-06-15 12:19:00,86.2,55.3,30.19,SW,225,1.6,3.1,35,0.00,,,0.00,pywws,2013-06-15 16:19:00,
2013-06-15 12:25:00,85.3,57.5,30.19,East,90,2.2,3.1,39,0.00,,,0.00,pywws,2013-06-15 16:25:00,
2013-06-15 12:31:00,85.3,58.2,30.19,West,270,1.6,2.2,40,0.00,,,0.00,pywws,2013-06-15 16:31:00,
2013-06-15 12:36:00,86.7,59.5,30.19,East,90,0.7,2.2,40,0.00,,,0.00,pywws,2013-06-15 16:36:00,
2013-06-15 12:42:00,87.6,59.6,30.19,SE,135,0.7,1.6,39,0.00,,,0.00,pywws,2013-06-15 16:42:00,
2013-06-15 12:49:00,87.1,58.4,30.18,NE,45,0.7,1.6,38,0.00,,,0.00,pywws,2013-06-15 16:49:00,
2013-06-15 12:55:00,87.6,57.3,30.18,NE,45,1.6,2.2,36,0.00,,,0.00,pywws,2013-06-15 16:55:00,
2013-06-15 13:00:00,87.1,59.8,30.18,East,90,0.7,1.6,40,0.00,,,0.00,pywws,2013-06-15 17:00:00,
2013-06-15 13:06:00,87.8,59.7,30.18,NW,315,0.0,1.6,39,0.00,,,0.00,pywws,2013-06-15 17:06:00,
2013-06-15 13:11:00,88.9,59.2,30.18,ENE,68,1.6,2.2,37,0.00,,,0.00,pywws,2013-06-15 17:11:00,
2013-06-15 13:17:00,88.5,59.6,30.18,NE,45,0.7,1.6,38,0.00,,,0.00,pywws,2013-06-15 17:17:00,
2013-06-15 13:23:00,89.2,59.5,30.18,North,0,0.7,1.6,37,0.00,,,0.00,pywws,2013-06-15 17:23:00,
2013-06-15 13:28:00,88.7,59.8,30.18,NE,45,0.7,2.2,38,0.00,,,0.00,pywws,2013-06-15 17:28:00,
2013-06-15 13:34:00,85.8,60.0,30.18,SE,135,0.0,0.7,42,0.00,,,0.00,pywws,2013-06-15 17:34:00,
2013-06-15 13:39:00,86.5,60.0,30.18,South,180,3.1,5.4,41,0.00,,,0.00,pywws,2013-06-15 17:39:00,
2013-06-15 13:45:00,86.9,60.3,30.18,West,270,0.7,1.6,41,0.00,,,0.00,pywws,2013-06-15 17:45:00,
2013-06-15 13:51:00,87.4,60.1,30.17,East,90,0.0,0.7,40,0.00,,,0.00,pywws,2013-06-15 17:51:00,
2013-06-15 13:56:00,86.9,59.6,30.17,NE,45,1.6,2.2,40,0.00,,,0.00,pywws,2013-06-15 17:56:00,
2013-06-15 14:03:00,86.9,60.3,30.17,NE,45,0.7,2.2,41,0.00,,,0.00,pywws,2013-06-15 18:03:00,
2013-06-15 14:08:00,86.2,59.7,30.17,ENE,68,0.7,1.6,41,0.00,,,0.00,pywws,2013-06-15 18:08:00,
2013-06-15 14:14:00,83.7,60.0,30.17,NE,45,0.7,2.2,45,0.00,,,0.00,pywws,2013-06-15 18:14:00,
2013-06-15 14:19:00,82.9,59.4,30.16,NE,45,3.8,4.5,45,0.00,,,0.00,pywws,2013-06-15 18:19:00,
2013-06-15 14:25:00,85.1,61.3,30.16,SW,225,0.0,2.2,45,0.00,,,0.00,pywws,2013-06-15 18:25:00,
2013-06-15 14:31:00,86.7,59.5,30.16,SW,225,1.6,3.1,40,0.00,,,0.00,pywws,2013-06-15 18:31:00,
2013-06-15 14:36:00,87.4,61.5,30.16,NE,45,2.2,3.8,42,0.00,,,0.00,pywws,2013-06-15 18:36:00,
2013-06-15 14:42:00,86.5,58.6,30.16,North,0,0.7,1.6,39,0.00,,,0.00,pywws,2013-06-15 18:42:00,
2013-06-15 14:47:00,83.5,59.2,30.16,North,0,0.7,1.6,44,0.00,,,0.00,pywws,2013-06-15 18:47:00,
2013-06-15 14:53:00,83.3,59.7,30.16,NE,45,0.7,2.2,45,0.00,,,0.00,pywws,2013-06-15 18:53:00,
2013-06-15 14:59:00,86.0,60.9,30.17,NE,45,0.0,1.6,43,0.00,,,0.00,pywws,2013-06-15 18:59:00,
2013-06-15 15:04:00,87.3,61.3,30.16,NE,45,1.6,2.2,42,0.00,,,0.00,pywws,2013-06-15 19:04:00,
2013-06-15 15:10:00,86.9,60.3,30.16,NE,45,0.7,2.2,41,0.00,,,0.00,pywws,2013-06-15 19:10:00,
2013-06-15 15:15:00,87.4,58.7,30.16,North,0,1.6,2.2,38,0.00,,,0.00,pywws,2013-06-15 19:15:00,
2013-06-15 15:21:00,88.7,59.0,30.16,North,0,0.0,0.7,37,0.00,,,0.00,pywws,2013-06-15 19:21:00,
2013-06-15 15:27:00,89.4,59.7,30.16,North,0,0.7,1.6,37,0.00,,,0.00,pywws,2013-06-15 19:27:00,
2013-06-15 15:32:00,90.1,59.5,30.16,NE,45,0.7,1.6,36,0.00,,,0.00,pywws,2013-06-15 19:32:00,
2013-06-15 15:38:00,87.8,57.5,30.16,North,0,0.7,1.6,36,0.00,,,0.00,pywws,2013-06-15 19:38:00,
2013-06-15 15:43:00,84.7,59.1,30.16,NE,45,0.0,0.7,42,0.00,,,0.00,pywws,2013-06-15 19:43:00,
2013-06-15 15:49:00,83.7,60.0,30.16,NE,45,0.7,1.6,45,0.00,,,0.00,pywws,2013-06-15 19:49:00,
2013-06-15 15:55:00,86.7,61.5,30.15,NE,45,0.0,0.7,43,0.00,,,0.00,pywws,2013-06-15 19:55:00,
2013-06-15 16:00:00,88.9,59.9,30.15,South,180,1.6,3.8,38,0.00,,,0.00,pywws,2013-06-15 20:00:00,
2013-06-15 16:06:00,88.9,59.9,30.15,South,180,1.6,3.8,38,0.00,,,0.00,pywws,2013-06-15 20:06:00,
2013-06-15 16:11:00,89.4,58.9,30.15,NE,45,0.0,0.7,36,0.00,,,0.00,pywws,2013-06-15 20:11:00,
2013-06-15 16:17:00,90.5,59.1,30.14,North,0,0.7,1.6,35,0.00,,,0.00,pywws,2013-06-15 20:17:00,
2013-06-15 16:23:00,90.5,59.1,30.14,NE,45,0.7,1.6,35,0.00,,,0.00,pywws,2013-06-15 20:23:00,
2013-06-15 16:28:00,88.9,58.4,30.14,East,90,0.7,1.6,36,0.00,,,0.00,pywws,2013-06-15 20:28:00,
2013-06-15 16:34:00,89.4,59.7,30.14,NE,45,0.0,0.7,37,0.00,,,0.00,pywws,2013-06-15 20:34:00,
2013-06-15 16:39:00,90.1,58.7,30.14,North,0,0.0,0.7,35,0.00,,,0.00,pywws,2013-06-15 20:39:00,
2013-06-15 16:45:00,88.3,59.5,30.14,SE,135,1.6,2.2,38,0.00,,,0.00,pywws,2013-06-15 20:45:00,
2013-06-15 16:51:00,90.0,58.6,30.14,NE,45,0.7,1.6,35,0.00,,,0.00,pywws,2013-06-15 20:51:00,
2013-06-15 16:56:00,90.9,58.6,30.14,NE,45,1.6,2.2,34,0.00,,,0.00,pywws,2013-06-15 20:56:00,
2013-06-15 17:02:00,90.3,58.9,30.14,NE,45,0.7,1.6,35,0.00,,,0.00,pywws,2013-06-15 21:02:00,
2013-06-15 17:07:00,89.8,58.4,30.14,NE,45,0.0,0.0,35,0.00,,,0.00,pywws,2013-06-15 21:07:00,
2013-06-15 17:13:00,90.7,58.4,30.14,North,0,1.6,2.2,34,0.00,,,0.00,pywws,2013-06-15 21:13:00,
2013-06-15 17:19:00,90.7,58.4,30.14,South,180,0.7,1.6,34,0.00,,,0.00,pywws,2013-06-15 21:19:00,
2013-06-15 17:24:00,90.9,60.2,30.14,NE,45,0.7,1.6,36,0.00,,,0.00,pywws,2013-06-15 21:24:00,
2013-06-15 17:30:00,90.7,58.4,30.13,NE,45,0.7,1.6,34,0.00,,,0.00,pywws,2013-06-15 21:30:00,
2013-06-15 17:35:00,90.3,58.1,30.13,North,0,0.0,0.7,34,0.00,,,0.00,pywws,2013-06-15 21:35:00,
2013-06-15 17:42:00,90.0,58.6,30.13,ENE,68,0.0,0.7,35,0.00,,,0.00,pywws,2013-06-15 21:42:00,
2013-06-15 17:47:00,90.5,59.1,30.12,NE,45,0.7,1.6,35,0.00,,,0.00,pywws,2013-06-15 21:47:00,
2013-06-15 17:53:00,90.0,58.6,30.12,NE,45,0.7,1.6,35,0.00,,,0.00,pywws,2013-06-15 21:53:00,
2013-06-15 17:59:00,90.0,58.6,30.12,NE,45,0.0,1.6,35,0.00,,,0.00,pywws,2013-06-15 21:59:00,
2013-06-15 18:04:00,90.0,58.6,30.12,NE,45,0.7,1.6,35,0.00,,,0.00,pywws,2013-06-15 22:04:00,
2013-06-15 18:11:00,90.9,59.4,30.12,NE,45,0.0,0.7,35,0.00,,,0.00,pywws,2013-06-15 22:11:00,
2013-06-15 18:16:00,90.7,59.2,30.12,West,270,0.0,0.0,35,0.00,,,0.00,pywws,2013-06-15 22:16:00,
2013-06-15 18:22:00,91.6,61.6,30.12,NE,45,0.7,1.6,37,0.00,,,0.00,pywws,2013-06-15 22:22:00,
2013-06-15 18:27:00,91.2,59.7,30.12,NE,45,0.0,0.7,35,0.00,,,0.00,pywws,2013-06-15 22:27:00,
2013-06-15 18:33:00,91.8,61.0,30.12,NE,45,0.7,1.6,36,0.00,,,0.00,pywws,2013-06-15 22:33:00,
2013-06-15 18:39:00,90.9,58.6,30.12,NE,45,0.0,0.7,34,0.00,,,0.00,pywws,2013-06-15 22:39:00,
2013-06-15 18:44:00,91.4,60.6,30.12,NE,45,0.0,0.7,36,0.00,,,0.00,pywws,2013-06-15 22:44:00,
2013-06-15 18:50:00,91.4,60.6,30.13,North,0,0.0,0.7,36,0.00,,,0.00,pywws,2013-06-15 22:50:00,
2013-06-15 18:55:00,91.8,61.7,30.12,NE,45,0.0,0.0,37,0.00,,,0.00,pywws,2013-06-15 22:55:00,
2013-06-15 19:01:00,91.8,61.7,30.12,NE,45,0.0,0.0,37,0.00,,,0.00,pywws,2013-06-15 23:01:00,
2013-06-15 19:07:00,91.2,59.7,30.12,NE,45,0.0,0.7,35,0.00,,,0.00,pywws,2013-06-15 23:07:00,
2013-06-15 19:14:00,91.2,59.7,30.13,NE,45,0.0,0.0,35,0.00,,,0.00,pywws,2013-06-15 23:14:00,
2013-06-15 19:19:00,88.3,58.7,30.13,NE,45,0.0,0.0,37,0.00,,,0.00,pywws,2013-06-15 23:19:00,
2013-06-15 19:25:00,84.9,59.9,30.13,NE,45,0.0,0.0,43,0.00,,,0.00,pywws,2013-06-15 23:25:00,
2013-06-15 19:31:00,82.2,58.1,30.13,NE,45,0.0,0.0,44,0.00,,,0.00,pywws,2013-06-15 23:31:00,
2013-06-15 19:36:00,80.8,58.0,30.13,NE,45,0.0,0.0,46,0.00,,,0.00,pywws,2013-06-15 23:36:00,
2013-06-15 19:43:00,79.9,59.0,30.13,NE,45,0.0,0.0,49,0.00,,,0.00,pywws,2013-06-15 23:43:00,
2013-06-15 19:48:00,79.3,59.6,30.13,East,90,0.0,0.7,51,0.00,,,0.00,pywws,2013-06-15 23:48:00,
2013-06-15 19:54:00,78.8,59.7,30.13,East,90,0.0,0.7,52,0.00,,,0.00,pywws,2013-06-15 23:54:00,
2013-06-15 19:59:00,77.9,59.4,30.13,SW,225,0.0,0.7,53,0.00,,,0.00,pywws,2013-06-15 23:59:00,
2013-06-15 20:05:00,77.4,59.9,30.13,East,90,0.7,1.6,55,0.00,,,0.00,pywws,2013-06-16 00:05:00,
2013-06-15 20:11:00,77.0,60.1,30.13,South,180,0.0,0.0,56,0.00,,,0.00,pywws,2013-06-16 00:11:00,
2013-06-15 20:16:00,76.5,60.6,30.13,North,0,1.6,2.2,58,0.00,,,0.00,pywws,2013-06-16 00:16:00,
2013-06-15 20:22:00,75.9,61.0,30.13,ENE,68,0.7,1.6,60,0.00,,,0.00,pywws,2013-06-16 00:22:00,
2013-06-15 20:27:00,75.7,61.3,30.13,East,90,2.2,4.5,61,0.00,,,0.00,pywws,2013-06-16 00:27:00,
2013-06-15 20:33:00,75.2,61.3,30.13,ESE,112,1.6,3.1,62,0.00,,,0.00,pywws,2013-06-16 00:33:00,
2013-06-15 20:39:00,74.7,61.7,30.12,SE,135,0.0,1.6,64,0.00,,,0.00,pywws,2013-06-16 00:39:00,
2013-06-15 20:44:00,74.3,61.3,30.12,SE,135,0.0,1.6,64,0.00,,,0.00,pywws,2013-06-16 00:44:00,
2013-06-15 20:50:00,74.3,61.3,30.12,South,180,0.7,2.2,64,0.00,,,0.00,pywws,2013-06-16 00:50:00,
2013-06-15 20:55:00,73.8,60.8,30.12,NE,45,0.0,0.0,64,0.00,,,0.00,pywws,2013-06-16 00:55:00,
2013-06-15 21:02:00,73.2,60.3,30.12,North,0,0.0,0.0,64,0.00,,,0.00,pywws,2013-06-16 01:02:00,
2013-06-15 21:07:00,72.5,60.1,30.12,NE,45,0.0,0.0,65,0.00,,,0.00,pywws,2013-06-16 01:07:00,
2013-06-15 21:13:00,72.0,60.0,30.13,SE,135,0.0,0.7,66,0.00,,,0.00,pywws,2013-06-16 01:13:00,
2013-06-15 21:19:00,71.8,60.2,30.13,SW,225,0.0,0.7,67,0.00,,,0.00,pywws,2013-06-16 01:19:00,
2013-06-15 21:25:00,72.1,60.6,30.13,South,180,0.0,0.0,67,0.00,,,0.00,pywws,2013-06-16 01:25:00,
2013-06-15 21:31:00,72.0,60.8,30.14,North,0,0.0,0.0,68,0.00,,,0.00,pywws,2013-06-16 01:31:00,
2013-06-15 21:36:00,71.6,60.9,30.13,South,180,1.6,2.2,69,0.00,,,0.00,pywws,2013-06-16 01:36:00,
2013-06-15 21:42:00,71.4,61.5,30.13,West,270,0.0,0.7,71,0.00,,,0.00,pywws,2013-06-16 01:42:00,
2013-06-15 21:47:00,71.1,61.2,30.14,North,0,0.0,0.7,71,0.00,,,0.00,pywws,2013-06-16 01:47:00,
2013-06-15 21:54:00,70.2,60.7,30.14,North,0,0.0,0.0,72,0.00,,,0.00,pywws,2013-06-16 01:54:00,
2013-06-15 21:59:00,69.8,60.7,30.14,South,180,0.7,1.6,73,0.00,,,0.00,pywws,2013-06-16 01:59:00,
2013-06-15 22:05:00,69.4,61.2,30.15,SW,225,0.7,1.6,75,0.00,,,0.00,pywws,2013-06-16 02:05:00,
2013-06-15 22:11:00,69.1,60.8,30.15,SW,225,0.0,0.7,75,0.00,,,0.00,pywws,2013-06-16 02:11:00,
2013-06-15 22:16:00,69.3,61.0,30.15,South,180,0.0,0.0,75,0.00,,,0.00,pywws,2013-06-16 02:16:00,
2013-06-15 22:22:00,68.9,61.0,30.16,NE,45,0.0,0.0,76,0.00,,,0.00,pywws,2013-06-16 02:22:00,
2013-06-15 22:27:00,68.4,60.5,30.16,NE,45,0.0,0.0,76,0.00,,,0.00,pywws,2013-06-16 02:27:00,
2013-06-15 22:33:00,68.2,60.7,30.16,South,180,0.0,0.7,77,0.00,,,0.00,pywws,2013-06-16 02:33:00,
2013-06-15 22:39:00,68.2,61.1,30.16,South,180,0.0,0.0,78,0.00,,,0.00,pywws,2013-06-16 02:39:00,
2013-06-15 22:45:00,68.2,60.7,30.16,South,180,0.0,0.0,77,0.00,,,0.00,pywws,2013-06-16 02:45:00,
2013-06-15 22:51:00,67.6,60.9,30.16,South,180,0.7,1.6,79,0.00,,,0.00,pywws,2013-06-16 02:51:00,
2013-06-15 22:56:00,67.3,60.9,30.16,South,180,0.0,0.0,80,0.00,,,0.00,pywws,2013-06-16 02:56:00,
2013-06-15 23:02:00,67.3,60.9,30.17,South,180,0.0,0.7,80,0.00,,,0.00,pywws,2013-06-16 03:02:00,
2013-06-15 23:08:00,66.9,60.9,30.17,South,180,0.0,0.7,81,0.00,,,0.00,pywws,2013-06-16 03:08:00,
2013-06-15 23:15:00,67.1,61.1,30.17,SE,135,0.0,0.0,81,0.00,,,0.00,pywws,2013-06-16 03:15:00,
2013-06-15 23:21:00,66.7,61.4,30.17,NE,45,0.0,0.0,83,0.00,,,0.00,pywws,2013-06-16 03:21:00,
2013-06-15 23:27:00,66.6,61.2,30.17,South,180,0.0,0.0,83,0.00,,,0.00,pywws,2013-06-16 03:27:00,
2013-06-15 23:33:00,66.6,60.9,30.17,South,180,0.0,0.7,82,0.00,,,0.00,pywws,2013-06-16 03:33:00,
2013-06-15 23:40:00,66.7,61.1,30.17,South,180,0.0,0.7,82,0.00,,,0.00,pywws,2013-06-16 03:40:00,
2013-06-15 23:46:00,66.4,61.1,30.17,South,180,0.0,0.0,83,0.00,,,0.00,pywws,2013-06-16 03:46:00,
2013-06-15 23:51:00,65.8,60.9,30.17,South,180,0.0,0.0,84,0.00,,,0.00,pywws,2013-06-16 03:51:00,
2013-06-15 23:57:00,65.5,60.8,30.17,South,180,0.0,0.0,85,0.00,,,0.00,pywws,2013-06-16 03:57:00,